createdAt,value
2023-04-18T03:43:16.880Z,7.65
2023-04-18T03:48:34.147Z,8.55
2023-04-18T03:53:52.825Z,10.27
2023-04-18T03:59:07.858Z,27.55
2023-04-18T04:04:26.964Z,21.58
2023-04-18T04:09:41.740Z,13.75
2023-04-18T04:14:57.854Z,14.00
2023-04-18T04:20:14.859Z,15.27
2023-04-18T04:25:29.846Z,14.85
2023-04-18T04:30:51.241Z,13.43
2023-04-18T04:36:06.854Z,11.02
2023-04-18T04:41:21.860Z,12.73
2023-04-18T04:46:36.914Z,8.75
2023-04-18T04:51:59.053Z,11.27
2023-04-18T04:57:15.171Z,10.13
2023-04-18T05:02:31.058Z,13.82
2023-04-18T05:07:46.878Z,11.38
2023-04-18T05:13:01.900Z,12.38
2023-04-18T05:18:16.852Z,18.33
2023-04-18T05:23:31.852Z,17.30
2023-04-18T05:28:46.960Z,11.82
2023-04-18T05:34:01.884Z,10.70
2023-04-18T05:39:16.904Z,9.15
2023-04-18T05:44:31.889Z,8.75
2023-04-18T05:49:46.620Z,13.20
2023-04-18T05:55:01.876Z,12.30
2023-04-18T06:00:17.025Z,16.15
2023-04-18T06:05:32.200Z,15.40
2023-04-18T06:10:47.849Z,8.57
2023-04-18T06:16:02.938Z,11.77
2023-04-18T06:21:17.862Z,14.43
2023-04-18T06:26:32.865Z,10.20
2023-04-18T06:31:47.957Z,12.02
2023-04-18T06:37:02.844Z,9.60
2023-04-18T06:42:19.115Z,8.85
2023-04-18T06:47:35.904Z,10.75
2023-04-18T06:52:50.928Z,7.65
2023-04-18T06:58:06.141Z,9.18
2023-04-18T07:03:22.005Z,8.50
2023-04-18T07:08:36.967Z,8.80
2023-04-18T07:13:51.887Z,8.10
2023-04-18T07:19:06.894Z,6.28
2023-04-18T07:24:21.888Z,10.73
2023-04-18T07:29:36.850Z,9.10
2023-04-18T07:34:52.190Z,7.25
2023-04-18T07:40:07.898Z,8.35
2023-04-18T07:45:22.841Z,8.98
2023-04-18T07:50:38.183Z,6.53
2023-04-18T07:55:54.627Z,7.82
2023-04-18T08:01:11.303Z,7.47
2023-04-18T08:06:26.905Z,8.27
2023-04-18T08:11:41.879Z,5.65
2023-04-18T08:16:57.241Z,6.35
2023-04-18T08:22:12.876Z,5.10
2023-04-18T08:27:27.903Z,6.45
2023-04-18T08:32:42.796Z,4.47
2023-04-18T08:37:57.942Z,5.80
2023-04-18T08:43:12.930Z,6.63
2023-04-18T08:48:27.887Z,5.28
2023-04-18T08:53:42.867Z,6.80
2023-04-18T08:58:58.148Z,5.22
2023-04-18T09:04:13.909Z,4.20
2023-04-18T09:09:28.893Z,7.30
2023-04-18T09:14:43.610Z,8.07
2023-04-18T09:19:58.891Z,4.55
2023-04-18T09:25:13.923Z,3.65
2023-04-18T09:30:28.856Z,5.15
2023-04-18T09:35:43.918Z,3.00
2023-04-18T09:40:58.886Z,4.20
2023-04-18T09:46:14.267Z,8.45
2023-04-18T09:51:30.221Z,3.88
2023-04-18T09:56:45.934Z,5.28
2023-04-18T10:02:00.980Z,3.75
2023-04-18T10:07:15.879Z,4.13
2023-04-18T10:12:30.691Z,6.68
2023-04-18T10:17:56.223Z,4.13
2023-04-18T10:23:17.925Z,4.22
2023-04-18T10:28:32.857Z,6.75
2023-04-18T10:34:00.662Z,3.35
2023-04-18T10:35:41.268Z,2.65
2023-04-18T10:38:11.419Z,2.35
2023-04-18T10:40:40.138Z,4.25
2023-04-18T10:43:10.492Z,4.63
2023-04-18T10:44:35.872Z,5.50
2023-04-18T10:45:40.710Z,4.55
2023-04-18T10:48:10.566Z,2.60
2023-04-18T10:49:50.906Z,3.83
2023-04-18T10:50:41.038Z,3.33
2023-04-18T10:53:09.994Z,2.78
2023-04-18T10:55:05.886Z,4.47
2023-04-18T11:00:20.931Z,2.88
2023-04-18T11:05:35.889Z,3.42
2023-04-18T11:10:51.910Z,5.07
2023-04-18T11:16:07.021Z,3.45
2023-04-18T11:21:21.889Z,4.47
2023-04-18T11:26:37.269Z,4.07
2023-04-18T11:31:53.327Z,4.28
2023-04-18T11:37:09.868Z,5.88
2023-04-18T11:42:24.920Z,3.40
2023-04-18T11:47:39.955Z,5.28
2023-04-18T11:52:54.770Z,8.13
2023-04-18T11:58:10.190Z,4.55
2023-04-18T12:03:26.016Z,6.90
2023-04-18T12:08:42.292Z,6.38
2023-04-18T12:13:58.005Z,3.88
2023-04-18T12:19:12.881Z,5.50
2023-04-18T12:24:27.691Z,4.95
2023-04-18T12:29:42.946Z,4.70
2023-04-18T12:34:57.637Z,5.10
2023-04-18T12:40:12.939Z,4.28
2023-04-18T12:45:27.864Z,5.97
2023-04-18T12:50:42.632Z,4.35
2023-04-18T12:55:57.923Z,6.18
2023-04-18T13:01:12.985Z,4.35
2023-04-18T13:06:27.945Z,6.13
2023-04-18T13:11:42.978Z,6.38
2023-04-18T13:16:57.984Z,9.00
2023-04-18T13:22:12.958Z,6.03
2023-04-18T13:27:27.898Z,7.18
2023-04-18T13:32:43.095Z,8.85
2023-04-18T13:37:58.916Z,6.13
2023-04-18T13:43:14.220Z,7.68
2023-04-18T13:48:29.920Z,8.75
2023-04-18T13:53:44.931Z,11.15
2023-04-18T13:58:59.659Z,8.73
2023-04-18T14:04:15.327Z,4.75
2023-04-18T14:09:30.913Z,7.88
2023-04-18T14:15:53.373Z,5.13
2023-04-18T14:18:23.678Z,5.78
2023-04-18T14:20:54.209Z,5.25
